Terminal Aerodrome Forecast
Issued by NWS

Home | Current Version | Previous Version | Text Only | Print | Product List | Glossary On
Versions: 1 2 3 4 5 6 7 8 9 10 11 12 13 14 15 16 17 18 19 20 21 22 23
000
FTUS41 KOKX 290200 AAA
TAFHPN
TAF AMD
KHPN 290232Z 2903/2924 30007KT P6SM SCT080
     FM291800 27006KT P6SM SCT070
     FM292100 25005KT P6SM BKN060
      AMD NOT SKED=

USA.gov is the U.S. government's official web portal to all federal, state and local government web resources and services.